Time;durP1;ratioP1;P1;durP2;ratioP2;P2;SDS_P1;SDS_P2;PMS_P1;PMS_P2;Temp;Humidity;BMP_temperature;BMP_pressure;BME280_temperature;BME280_humidity;BME280_pressure;Samples;Min_cycle;Max_cycle;Signal;HPM_P1;HPM_P2
2022/01/26 00:00:30;;;;;;;24.52;11.95;;;;;;;8.67;47.30;102893.81;5007978;28;20050;-74
2022/01/26 00:05:44;;;;;;;26.63;12.30;;;;;;;8.67;47.38;102890.22;5003886;28;20064;-75
2022/01/26 00:06:02;;;;;;;26.58;13.25;;;;;;;8.66;47.34;102891.16;5009589;28;20108;-75
2022/01/26 00:08:29;;;;;;;27.67;13.88;;;;;;;8.66;47.23;102883.91;5011708;28;20100;-75
2022/01/26 00:10:55;;;;;;;30.98;14.77;;;;;;;8.67;47.29;102877.56;5009834;28;20131;-75
2022/01/26 00:13:22;;;;;;;30.52;13.95;;;;;;;8.66;47.21;102873.09;5011917;28;20669;-75
2022/01/26 00:15:49;;;;;;;35.63;15.48;;;;;;;8.68;47.28;102870.34;5008860;28;20108;-75
2022/01/26 00:18:18;;;;;;;30.65;14.77;;;;;;;8.67;47.36;102877.56;5011852;28;20442;-75
2022/01/26 00:20:54;;;;;;;27.90;13.88;;;;;;;8.68;47.46;102878.47;5010810;28;20148;-74
2022/01/26 00:29:47;;;;;;;26.58;13.38;;;;;;;8.64;47.28;102874.97;5007977;28;20393;-74
2022/01/26 00:40:32;;;;;;;32.20;15.02;;;;;;;8.67;47.19;102883.00;5008967;28;20497;-75
2022/01/26 00:43:09;;;;;;;30.40;15.18;;;;;;;8.68;47.35;102878.47;5010323;28;20054;-75
2022/01/26 00:45:36;;;;;;;28.23;13.50;;;;;;;8.68;47.25;102879.34;5005233;28;20397;-75
2022/01/26 00:48:06;;;;;;;35.25;16.75;;;;;;;8.70;47.32;102872.09;5010954;28;20054;-75
2022/01/26 00:50:34;;;;;;;31.00;15.35;;;;;;;8.69;47.44;102866.72;5006175;28;20050;-75
2022/01/26 00:53:01;;;;;;;32.10;15.15;;;;;;;8.70;47.47;102876.63;5006802;28;20185;-75
2022/01/26 00:55:28;;;;;;;25.75;13.77;;;;;;;8.71;47.09;102865.75;5009649;28;20449;-75
2022/01/26 00:57:54;;;;;;;31.30;15.32;;;;;;;8.70;46.99;102871.19;5010464;28;20133;-74
2022/01/26 01:00:27;;;;;;;31.35;15.05;;;;;;;8.72;46.81;102875.66;5010130;28;20050;-75
2022/01/26 01:02:55;;;;;;;32.58;16.00;;;;;;;8.70;47.20;102882.03;5010205;28;20050;-75
2022/01/26 01:05:28;;;;;;;34.53;16.60;;;;;;;8.70;47.21;102872.09;4992097;28;20065;-75
2022/01/26 01:08:03;;;;;;;26.00;13.45;;;;;;;8.68;47.22;102873.06;4990011;28;20401;-75
2022/01/26 01:10:30;;;;;;;31.35;15.38;;;;;;;8.69;47.19;102870.31;4997210;28;20058;-74
2022/01/26 01:12:58;;;;;;;33.95;15.50;;;;;;;8.69;47.14;102864.88;5010884;28;20104;-75
2022/01/26 01:15:27;;;;;;;31.30;15.70;;;;;;;8.70;47.06;102869.38;5008003;28;20146;-75
2022/01/26 01:18:07;;;;;;;31.73;15.20;;;;;;;8.70;46.97;102873.91;5010648;28;20061;-75
2022/01/26 01:26:10;;;;;;;32.85;15.43;;;;;;;8.65;47.23;102868.59;5008809;28;20080;-75
2022/01/26 01:31:15;;;;;;;32.88;15.88;;;;;;;8.65;47.09;102874.00;5008065;28;20084;-75
2022/01/26 01:33:48;;;;;;;30.27;16.23;;;;;;;8.64;47.20;102872.25;5010880;28;20089;-75
2022/01/26 01:36:16;;;;;;;34.75;16.23;;;;;;;8.63;46.92;102878.59;5006631;28;20041;-74
2022/01/26 01:38:43;;;;;;;34.28;16.60;;;;;;;8.64;47.17;102876.78;5010608;28;20161;-74
2022/01/26 01:41:10;;;;;;;34.45;17.27;;;;;;;8.64;47.14;102880.38;5008902;28;20552;-74
2022/01/26 01:43:37;;;;;;;37.13;17.92;;;;;;;8.63;47.17;102870.47;5009109;28;20553;-74
2022/01/26 01:46:05;;;;;;;36.92;17.00;;;;;;;8.65;47.38;102876.72;5006356;28;20064;-74
2022/01/26 01:48:33;;;;;;;34.80;17.88;;;;;;;8.64;47.58;102874.97;5010208;28;20053;-74
2022/01/26 01:51:05;;;;;;;38.53;18.75;;;;;;;8.64;47.45;102868.66;5005723;28;20101;-74
2022/01/26 01:53:39;;;;;;;39.65;18.65;;;;;;;8.62;47.40;102866.00;5010784;28;20054;-74
2022/01/26 01:56:12;;;;;;;41.13;19.50;;;;;;;8.65;47.32;102865.00;4995260;28;20069;-75
2022/01/26 01:58:39;;;;;;;40.95;19.65;;;;;;;8.63;47.23;102872.28;5010346;28;20078;-74
2022/01/26 02:01:07;;;;;;;44.97;20.80;;;;;;;8.65;47.40;102870.41;5008901;28;20081;-74
2022/01/26 02:03:35;;;;;;;38.70;19.90;;;;;;;8.64;47.40;102864.13;5006642;28;20050;-74
2022/01/26 02:06:02;;;;;;;46.85;20.08;;;;;;;8.64;47.36;102858.72;5007471;28;20049;-74
2022/01/26 02:08:28;;;;;;;42.58;20.05;;;;;;;8.65;47.32;102870.41;5004312;28;20496;-74
2022/01/26 02:10:55;;;;;;;40.10;20.35;;;;;;;8.67;47.48;102863.16;5007966;28;20495;-74
2022/01/26 02:13:26;;;;;;;46.55;23.08;;;;;;;8.66;47.28;102867.66;5009850;28;20088;-74
2022/01/26 02:16:07;;;;;;;42.05;21.50;;;;;;;8.66;47.51;102869.47;5012355;28;20129;-75
2022/01/26 02:21:26;;;;;;;46.65;21.92;;;;;;;8.66;47.34;102864.06;5011341;28;20137;-74
2022/01/26 02:54:41;;;;;;;55.22;23.63;;;;;;;8.54;47.06;102832.81;5012130;28;20054;-74
2022/01/26 03:02:46;;;;;;;59.65;24.42;;;;;;;8.56;46.96;102830.06;5012667;28;20085;-74
2022/01/26 03:05:15;;;;;;;59.05;23.88;;;;;;;8.55;47.06;102831.88;5010872;28;20465;-74
2022/01/26 03:07:52;;;;;;;60.80;25.25;;;;;;;8.56;46.93;102822.84;5013391;28;20054;-74
2022/01/26 03:13:00;;;;;;;62.85;25.23;;;;;;;8.56;46.85;102808.41;5011223;28;20563;-74
2022/01/26 03:15:36;;;;;;;62.00;24.30;;;;;;;8.53;46.72;102803.97;5007266;28;20108;-74
2022/01/26 03:20:50;;;;;;;59.85;24.33;;;;;;;8.53;46.78;102797.66;5006879;28;20445;-74
2022/01/26 03:36:20;;;;;;;61.47;23.63;;;;;;;8.47;46.55;102789.72;5009128;28;20065;-75
2022/01/26 03:38:58;;;;;;;60.13;23.65;;;;;;;8.45;46.65;102786.16;5010412;28;20462;-74
2022/01/26 03:41:47;;;;;;;64.95;25.00;;;;;;;8.43;46.85;102778.06;5003167;28;20133;-75
2022/01/26 03:44:15;;;;;;;61.03;24.17;;;;;;;8.41;46.76;102788.03;5008668;28;20129;-75
2022/01/26 03:46:43;;;;;;;58.55;24.75;;;;;;;8.42;46.95;102786.22;5008678;28;20046;-75
2022/01/26 03:49:11;;;;;;;60.92;24.40;;;;;;;8.40;46.86;102773.63;5016557;28;20081;-75
2022/01/26 03:51:40;;;;;;;60.88;25.23;;;;;;;8.40;47.04;102775.44;5010801;28;20042;-74
2022/01/26 03:54:07;;;;;;;57.83;23.10;;;;;;;8.41;46.99;102769.09;5008687;28;20054;-75
2022/01/26 03:56:34;;;;;;;57.58;22.98;;;;;;;8.42;46.86;102776.28;5009656;28;20133;-75
2022/01/26 03:59:02;;;;;;;57.42;23.80;;;;;;;8.43;46.88;102772.66;5011057;28;20104;-74
2022/01/26 04:01:29;;;;;;;59.50;23.98;;;;;;;8.44;47.04;102789.78;5010694;28;20068;-75
2022/01/26 04:03:56;;;;;;;56.40;22.73;;;;;;;8.43;47.06;102780.78;5007871;28;20046;-75
2022/01/26 04:06:24;;;;;;;57.13;23.10;;;;;;;8.44;46.93;102781.66;5008104;28;20066;-75
2022/01/26 04:08:51;;;;;;;54.33;22.75;;;;;;;8.43;46.85;102793.41;5009806;28;20138;-75
2022/01/26 04:11:33;;;;;;;55.78;22.30;;;;;;;8.42;46.77;102795.22;5013672;28;20085;-74
2022/01/26 04:14:04;;;;;;;49.97;21.02;;;;;;;8.43;46.95;102807.84;5004874;28;20100;-74
2022/01/26 04:16:31;;;;;;;48.38;20.48;;;;;;;8.40;46.75;102797.97;4985335;28;20116;-74
2022/01/26 04:18:58;;;;;;;49.50;20.98;;;;;;;8.40;46.85;102799.78;4990560;28;20060;-74
2022/01/26 04:29:29;;;;;;;48.97;20.35;;;;;;;8.38;47.12;102794.44;4969068;28;20073;-74
2022/01/26 04:31:58;;;;;;;51.65;20.70;;;;;;;8.37;47.06;102786.34;5000095;28;20081;-74
2022/01/26 04:34:25;;;;;;;48.53;21.20;;;;;;;8.37;46.72;102787.25;4991530;28;20089;-74
2022/01/26 04:36:58;;;;;;;50.55;21.55;;;;;;;8.38;46.89;102797.16;4988889;28;20082;-74
2022/01/26 04:39:31;;;;;;;54.75;22.65;;;;;;;8.36;46.87;102798.13;4988703;28;20129;-75
2022/01/26 04:42:03;;;;;;;45.70;20.67;;;;;;;8.35;46.88;102807.16;4989018;28;20105;-75
2022/01/26 04:45:01;;;;;;;49.65;20.20;;;;;;;8.34;46.99;102805.38;4982162;28;20065;-75
2022/01/26 04:47:28;;;;;;;51.38;21.13;;;;;;;8.33;46.68;102809.91;4983271;28;20082;-74
2022/01/26 04:49:55;;;;;;;46.90;20.42;;;;;;;8.34;46.92;102816.19;4983301;28;20062;-75
2022/01/26 04:52:21;;;;;;;50.67;20.65;;;;;;;8.33;47.08;102809.91;4989714;28;20556;-74
2022/01/26 04:54:49;;;;;;;53.47;21.35;;;;;;;8.34;47.15;102818.91;4987432;28;20133;-75
2022/01/26 04:57:16;;;;;;;47.38;20.08;;;;;;;8.34;47.01;102810.78;4984397;28;20074;-74
2022/01/26 04:59:42;;;;;;;53.00;21.17;;;;;;;8.34;46.94;102813.50;4988549;28;20481;-74
2022/01/26 05:02:09;;;;;;;51.97;20.92;;;;;;;8.36;46.87;102825.19;4988285;28;20138;-74
2022/01/26 05:04:37;;;;;;;50.05;20.58;;;;;;;8.34;46.84;102827.03;4988252;28;20046;-74
2022/01/26 05:07:04;;;;;;;50.58;19.83;;;;;;;8.34;46.75;102817.09;4988978;28;20128;-75
2022/01/26 05:09:31;;;;;;;50.72;21.08;;;;;;;8.33;46.95;102814.41;4992018;28;20360;-75
2022/01/26 05:11:58;;;;;;;51.63;21.48;;;;;;;8.34;46.66;102813.50;5007712;28;20100;-74
2022/01/26 05:14:24;;;;;;;51.15;21.13;;;;;;;8.32;46.79;102810.81;5007636;28;20074;-74
2022/01/26 05:16:51;;;;;;;48.47;20.42;;;;;;;8.31;46.57;102814.50;5007129;28;20054;-75
2022/01/26 05:19:18;;;;;;;48.30;20.33;;;;;;;8.30;46.56;102811.78;5004213;28;20053;-75
2022/01/26 05:21:45;;;;;;;46.95;19.73;;;;;;;8.29;46.63;102820.81;4986777;28;20062;-74
2022/01/26 05:24:12;;;;;;;49.53;20.40;;;;;;;8.27;46.63;102822.66;4975438;28;20141;-75
2022/01/26 05:26:39;;;;;;;53.30;21.30;;;;;;;8.26;46.82;102838.03;4996280;28;20066;-75
2022/01/26 05:29:11;;;;;;;47.80;20.38;;;;;;;8.22;46.98;102844.44;4990319;28;20482;-74
2022/01/26 05:31:38;;;;;;;54.13;20.83;;;;;;;8.25;46.65;102840.75;5007224;28;20077;-74
2022/01/26 05:34:06;;;;;;;47.90;19.15;;;;;;;8.23;46.45;102846.22;5006219;28;20076;-75
2022/01/26 05:36:32;;;;;;;49.30;20.27;;;;;;;8.24;46.92;102836.28;5011338;28;20133;-74
2022/01/26 05:38:59;;;;;;;49.28;21.05;;;;;;;8.22;46.95;102841.75;5005403;28;20141;-75
2022/01/26 05:41:25;;;;;;;49.63;20.77;;;;;;;8.22;46.92;102846.28;5008344;28;20481;-75
2022/01/26 05:43:52;;;;;;;57.10;22.33;;;;;;;8.21;46.87;102839.06;5003199;28;20501;-75
2022/01/26 05:46:27;;;;;;;52.08;21.20;;;;;;;8.22;46.99;102847.16;4982491;28;20057;-74
2022/01/26 05:48:55;;;;;;;54.97;21.50;;;;;;;8.21;47.15;102830.97;4979145;28;20231;-75
2022/01/26 05:51:22;;;;;;;51.20;21.02;;;;;;;8.21;47.14;102823.72;4990350;28;20236;-74
2022/01/26 05:53:49;;;;;;;56.17;22.48;;;;;;;8.21;46.75;102830.97;4994240;28;20039;-74
2022/01/26 05:56:16;;;;;;;51.13;20.52;;;;;;;8.21;47.07;102826.44;4991621;28;20053;-74
2022/01/26 05:58:42;;;;;;;57.88;22.85;;;;;;;8.22;47.08;102819.22;4988810;28;20209;-74
2022/01/26 06:01:13;;;;;;;57.13;23.25;;;;;;;8.23;46.99;102821.00;4989594;28;20511;-75
2022/01/26 06:03:41;;;;;;;52.88;20.90;;;;;;;8.22;46.97;102828.22;4991514;28;20050;-74
2022/01/26 06:06:08;;;;;;;53.17;20.83;;;;;;;8.24;46.94;102825.44;4976077;28;20116;-74
2022/01/26 06:08:35;;;;;;;54.38;23.20;;;;;;;8.24;46.99;102820.03;4992534;28;20086;-75
2022/01/26 06:11:03;;;;;;;59.40;23.30;;;;;;;8.25;46.92;102820.00;5001909;28;20050;-73
2022/01/26 06:13:30;;;;;;;59.50;22.70;;;;;;;8.23;47.12;102800.25;5009358;28;20050;-75
2022/01/26 06:15:57;;;;;;;56.53;22.10;;;;;;;8.24;46.96;102796.56;5011635;28;20116;-74
2022/01/26 06:18:24;;;;;;;59.97;22.20;;;;;;;8.23;46.82;102797.53;5011681;28;20072;-74
2022/01/26 06:20:51;;;;;;;52.08;20.90;;;;;;;8.23;46.87;102777.69;5010352;28;20428;-74
2022/01/26 06:23:19;;;;;;;57.35;22.40;;;;;;;8.22;47.13;102782.22;5012862;28;20088;-74
2022/01/26 06:25:46;;;;;;;53.15;21.35;;;;;;;8.22;46.97;102798.44;5017122;28;20135;-74
2022/01/26 06:28:15;;;;;;;59.03;21.92;;;;;;;8.22;47.22;102813.78;5009320;28;20093;-74
2022/01/26 06:30:46;;;;;;;56.90;21.60;;;;;;;8.23;47.01;102802.06;5013849;28;20045;-74
2022/01/26 06:33:13;;;;;;;62.42;23.50;;;;;;;8.21;47.02;102807.50;5009772;28;20053;-73
2022/01/26 06:35:41;;;;;;;62.10;23.92;;;;;;;8.22;47.35;102822.81;5010089;28;20485;-74
2022/01/26 06:38:09;;;;;;;62.97;24.15;;;;;;;8.20;47.00;102808.41;5007167;28;20042;-74
2022/01/26 06:40:36;;;;;;;70.13;24.38;;;;;;;8.21;46.98;102817.44;5009379;28;20477;-74
2022/01/26 06:43:09;;;;;;;72.20;28.10;;;;;;;8.19;47.17;102819.28;5013686;28;20041;-74
2022/01/26 06:45:41;;;;;;;64.95;23.83;;;;;;;8.18;46.83;102814.78;5010930;28;20125;-74
2022/01/26 06:48:39;;;;;;;74.35;26.33;;;;;;;8.16;47.00;102825.66;5009694;28;20084;-74
2022/01/26 06:51:00;;;;;;;63.35;23.85;;;;;;;8.14;47.01;102822.13;5011237;28;20124;-73
2022/01/26 06:53:28;;;;;;;65.13;25.20;;;;;;;8.16;46.83;102831.06;5011148;28;20088;-73
2022/01/26 06:55:54;;;;;;;65.88;25.52;;;;;;;8.17;46.81;102826.53;5007894;28;20161;-74
2022/01/26 06:58:21;;;;;;;66.88;24.30;;;;;;;8.16;47.17;102830.16;5007731;28;20053;-74
2022/01/26 07:00:49;;;;;;;66.00;26.58;;;;;;;8.18;46.96;102828.31;4996220;28;20050;-74
2022/01/26 07:03:16;;;;;;;71.82;25.95;;;;;;;8.16;46.95;102819.34;5008872;28;20049;-74
2022/01/26 07:05:44;;;;;;;69.65;25.67;;;;;;;8.16;47.22;102817.53;4989592;28;20046;-75
2022/01/26 07:08:10;;;;;;;66.97;25.35;;;;;;;8.14;47.15;102792.34;5001850;28;20454;-74
2022/01/26 07:10:40;;;;;;;67.00;27.05;;;;;;;8.16;46.94;102789.59;4987387;28;20082;-74
2022/01/26 07:13:07;;;;;;;73.55;26.13;;;;;;;8.15;47.00;102788.72;4988906;28;20138;-75
2022/01/26 07:21:28;;;;;;;72.18;26.77;;;;;;;8.13;46.85;102811.31;4986997;28;20073;-76
2022/01/26 07:23:59;;;;;;;62.88;24.58;;;;;;;8.10;46.91;102825.81;4985469;28;20411;-76
2022/01/26 07:26:29;;;;;;;67.55;25.55;;;;;;;8.11;47.03;102815.88;4985438;28;20065;-76
2022/01/26 07:28:57;;;;;;;70.60;28.17;;;;;;;8.12;47.14;102826.66;4983805;28;20080;-76
2022/01/26 07:31:24;;;;;;;68.80;25.92;;;;;;;8.11;47.14;102813.16;4985717;28;20137;-76
2022/01/26 07:33:56;;;;;;;73.50;27.88;;;;;;;8.10;47.22;102811.38;4985662;28;20089;-75
2022/01/26 07:36:24;;;;;;;71.03;27.35;;;;;;;8.11;47.30;102816.78;4984148;28;20043;-76
2022/01/26 07:38:54;;;;;;;70.95;26.48;;;;;;;8.12;47.28;102804.13;4982647;28;20081;-76
2022/01/26 07:41:21;;;;;;;69.18;26.35;;;;;;;8.13;47.63;102808.63;5006852;28;20087;-76
2022/01/26 07:43:47;;;;;;;65.60;25.25;;;;;;;8.13;47.58;102798.69;5010200;28;20127;-75
2022/01/26 07:46:14;;;;;;;69.78;25.08;;;;;;;8.14;47.49;102796.88;4989906;28;20054;-76
2022/01/26 07:48:41;;;;;;;65.75;24.02;;;;;;;8.15;47.68;102791.44;4989415;28;20125;-76
2022/01/26 07:51:08;;;;;;;57.88;22.75;;;;;;;8.16;47.52;102800.41;4989682;28;20050;-76
2022/01/26 07:53:35;;;;;;;65.57;25.23;;;;;;;8.17;47.38;102811.19;4988881;28;20046;-76
2022/01/26 07:56:02;;;;;;;66.63;25.05;;;;;;;8.19;47.40;102811.16;4986659;28;20042;-76
2022/01/26 07:58:28;;;;;;;68.22;25.90;;;;;;;8.21;47.44;102817.44;4988638;28;20054;-76
2022/01/26 08:00:55;;;;;;;62.25;24.38;;;;;;;8.23;47.50;102819.19;4986825;28;20129;-76
2022/01/26 08:03:22;;;;;;;65.82;26.08;;;;;;;8.23;47.23;102826.41;4989293;28;20050;-77
2022/01/26 08:05:49;;;;;;;71.45;29.23;;;;;;;8.25;47.04;102835.34;5011739;28;20049;-77
2022/01/26 08:08:15;;;;;;;64.03;25.80;;;;;;;8.24;47.18;102826.34;5015791;28;20046;-76
2022/01/26 08:10:42;;;;;;;63.95;25.27;;;;;;;8.26;47.38;102807.34;4995561;28;20120;-76
2022/01/26 08:13:08;;;;;;;63.50;25.30;;;;;;;8.26;47.35;102785.72;4986329;28;20125;-76
2022/01/26 08:15:35;;;;;;;60.72;25.35;;;;;;;8.26;47.32;102801.94;4984894;28;20050;-76
2022/01/26 08:18:05;;;;;;;66.55;26.17;;;;;;;8.25;47.41;102814.59;4989145;28;20084;-76
2022/01/26 08:20:36;;;;;;;61.40;24.27;;;;;;;8.26;47.52;102815.47;4985746;28;20062;-76
2022/01/26 08:23:02;;;;;;;62.75;26.02;;;;;;;8.26;47.27;102802.84;4983313;28;20137;-76
2022/01/26 08:25:29;;;;;;;60.53;23.85;;;;;;;8.26;47.17;102805.53;4998018;28;20500;-77
2022/01/26 08:28:07;;;;;;;62.95;24.55;;;;;;;8.27;47.34;102823.56;5009430;28;20386;-77
2022/01/26 08:30:38;;;;;;;66.25;25.55;;;;;;;8.28;47.43;102824.44;5008145;28;20042;-76
2022/01/26 08:33:06;;;;;;;59.20;23.80;;;;;;;8.29;47.56;102826.22;5008161;28;20046;-76
2022/01/26 08:35:34;;;;;;;59.20;22.75;;;;;;;8.29;47.27;102840.66;5006377;28;20119;-76
2022/01/26 08:38:01;;;;;;;63.25;24.85;;;;;;;8.29;47.32;102832.53;5009840;28;20049;-77
2022/01/26 08:40:28;;;;;;;58.97;22.90;;;;;;;8.31;47.36;102833.44;5007945;28;20054;-77
2022/01/26 08:42:55;;;;;;;60.13;23.10;;;;;;;8.31;46.97;102829.84;5009335;28;20405;-77
2022/01/26 08:45:23;;;;;;;66.85;25.45;;;;;;;8.31;46.81;102836.13;5005374;28;20054;-77
2022/01/26 08:47:50;;;;;;;57.60;23.73;;;;;;;8.31;47.17;102846.06;5006913;28;20104;-76
2022/01/26 08:50:17;;;;;;;67.72;26.23;;;;;;;8.32;47.20;102866.75;5007020;28;20547;-76
2022/01/26 08:52:44;;;;;;;60.78;24.25;;;;;;;8.30;47.34;102865.91;5007851;28;20072;-76
2022/01/26 08:55:10;;;;;;;62.53;24.67;;;;;;;8.30;47.42;102871.31;5005910;28;20065;-77
2022/01/26 08:57:38;;;;;;;62.67;26.35;;;;;;;8.29;47.35;102870.44;5006098;28;20103;-77
2022/01/26 09:00:07;;;;;;;62.38;23.17;;;;;;;8.30;47.47;102849.66;5006278;28;20086;-77
2022/01/26 09:02:35;;;;;;;60.30;24.10;;;;;;;8.30;47.37;102860.50;5007141;28;20081;-77
2022/01/26 09:05:04;;;;;;;64.97;25.75;;;;;;;8.31;47.47;102851.47;5005916;28;20049;-77
2022/01/26 09:07:31;;;;;;;60.28;23.73;;;;;;;8.31;47.36;102859.59;5008567;28;20054;-77
2022/01/26 09:10:00;;;;;;;68.88;26.50;;;;;;;8.30;47.50;102874.03;5005431;28;20409;-77
2022/01/26 09:12:28;;;;;;;60.50;24.15;;;;;;;8.31;47.46;102873.13;5008780;28;20081;-77
2022/01/26 09:14:56;;;;;;;62.47;25.10;;;;;;;8.30;47.21;102866.78;5004211;28;20057;-76
2022/01/26 09:17:24;;;;;;;67.72;26.77;;;;;;;8.29;47.57;102867.72;5007058;28;20095;-76
2022/01/26 09:19:52;;;;;;;63.50;26.40;;;;;;;8.28;47.45;102860.53;5006954;28;20061;-76
2022/01/26 09:22:19;;;;;;;65.05;25.42;;;;;;;8.28;47.82;102859.63;5008462;28;20636;-76
2022/01/26 09:24:46;;;;;;;60.65;25.00;;;;;;;8.27;47.42;102866.84;5000657;28;20516;-76
2022/01/26 09:27:16;;;;;;;53.00;22.90;;;;;;;8.28;47.49;102876.75;4984744;28;20057;-76
2022/01/26 09:29:45;;;;;;;57.15;22.77;;;;;;;8.28;47.47;102865.94;4992984;28;20053;-76
2022/01/26 09:32:14;;;;;;;58.25;24.10;;;;;;;8.28;47.83;102868.66;4998203;28;20512;-76
2022/01/26 09:34:41;;;;;;;62.83;24.17;;;;;;;8.28;47.77;102870.47;5003846;28;20048;-76
2022/01/26 09:37:12;;;;;;;60.85;23.63;;;;;;;8.29;47.87;102877.66;5010038;28;20042;-76
2022/01/26 09:39:43;;;;;;;60.20;22.83;;;;;;;8.30;47.70;102880.31;5006905;28;20046;-75
2022/01/26 09:42:11;;;;;;;60.65;23.60;;;;;;;8.30;47.75;102884.84;5016350;28;20061;-76
2022/01/26 09:44:38;;;;;;;54.08;21.02;;;;;;;8.31;47.63;102881.25;5007472;28;20050;-76
2022/01/26 09:47:06;;;;;;;53.38;21.88;;;;;;;8.32;47.67;102875.78;5008734;28;20124;-76
2022/01/26 09:49:34;;;;;;;57.60;22.60;;;;;;;8.32;47.74;102883.00;5007107;28;20062;-77
2022/01/26 09:52:13;;;;;;;65.05;24.17;;;;;;;8.33;47.65;102891.09;5006823;28;20073;-77
2022/01/26 09:54:43;;;;;;;59.88;23.67;;;;;;;8.32;47.61;102899.25;4995215;28;20064;-76
2022/01/26 09:57:29;;;;;;;51.45;21.90;;;;;;;8.31;47.77;102892.06;5006909;28;20046;-77
2022/01/26 09:59:58;;;;;;;52.05;21.88;;;;;;;8.30;48.02;102879.44;5006694;28;20058;-77
2022/01/26 10:02:32;;;;;;;54.35;21.83;;;;;;;8.32;47.79;102872.19;5007499;28;20073;-77
2022/01/26 10:05:04;;;;;;;61.15;24.08;;;;;;;8.31;47.55;102875.84;5005735;28;20058;-77
2022/01/26 10:15:37;;;;;;;62.17;23.63;;;;;;;8.19;47.77;102865.28;5006507;28;20049;-77
2022/01/26 10:18:14;;;;;;;58.22;22.52;;;;;;;8.22;47.84;102862.50;5007457;28;20057;-77
2022/01/26 10:20:44;;;;;;;61.25;24.27;;;;;;;8.17;47.92;102865.31;5007569;28;20113;-77
2022/01/26 10:23:16;;;;;;;57.90;22.48;;;;;;;8.18;47.84;102866.19;5006993;28;20093;-77
2022/01/26 10:26:05;;;;;;;58.67;24.10;;;;;;;8.16;48.05;102865.34;5001959;28;20062;-77
2022/01/26 10:28:43;;;;;;;62.17;24.27;;;;;;;8.15;48.32;102863.59;5007560;28;20100;-76
2022/01/26 10:31:18;;;;;;;58.80;21.67;;;;;;;8.13;48.15;102863.63;5006722;28;20116;-77
2022/01/26 10:34:10;;;;;;;61.00;22.40;;;;;;;8.11;48.09;102857.34;5005164;28;20133;-77
2022/01/26 10:36:51;;;;;;;60.70;22.48;;;;;;;8.11;48.30;102849.22;5010531;28;20141;-77
2022/01/26 10:39:23;;;;;;;61.67;22.50;;;;;;;8.11;48.15;102859.16;5012091;28;20142;-77
2022/01/26 10:41:52;;;;;;;58.00;21.10;;;;;;;8.09;48.24;102863.72;5011035;28;20058;-77
2022/01/26 10:44:45;;;;;;;62.50;23.30;;;;;;;8.13;48.38;102855.50;5002759;28;20046;-77
2022/01/26 10:47:11;;;;;;;62.03;23.50;;;;;;;8.08;48.09;102867.34;5008809;28;20046;-77
2022/01/26 10:52:28;;;;;;;57.38;23.45;;;;;;;8.13;48.25;102852.81;5011682;28;20053;-77
2022/01/26 10:54:55;;;;;;;60.25;22.48;;;;;;;8.09;48.25;102845.66;5008771;28;20093;-77
2022/01/26 10:57:24;;;;;;;62.40;24.60;;;;;;;8.08;48.30;102841.19;5011860;28;20045;-77
2022/01/26 10:59:52;;;;;;;62.08;23.63;;;;;;;8.08;48.49;102848.41;5007312;28;20060;-77
2022/01/26 11:02:25;;;;;;;62.47;23.73;;;;;;;8.09;48.39;102855.59;5011247;28;20046;-77
2022/01/26 11:04:52;;;;;;;65.30;25.05;;;;;;;8.08;48.40;102865.53;5009748;28;20631;-77
2022/01/26 11:07:19;;;;;;;61.80;25.10;;;;;;;8.09;48.61;102863.72;5011287;28;20060;-77
2022/01/26 11:09:48;;;;;;;57.65;21.90;;;;;;;8.11;48.31;102867.28;5009906;28;20123;-77
2022/01/26 11:12:28;;;;;;;62.60;22.77;;;;;;;8.13;48.79;102858.22;5009867;28;20330;-76
2022/01/26 11:15:10;;;;;;;65.38;24.05;;;;;;;8.13;48.89;102862.72;5007495;28;20068;-76
2022/01/26 11:17:40;;;;;;;59.05;23.00;;;;;;;8.12;48.68;102866.34;5010465;28;20547;-76
2022/01/26 11:20:17;;;;;;;58.00;21.38;;;;;;;8.15;48.90;102869.00;5008579;28;20172;-76
2022/01/26 11:22:49;;;;;;;59.80;22.95;;;;;;;8.15;48.90;102869.00;5001491;28;20077;-76
2022/01/26 11:25:16;;;;;;;59.10;23.10;;;;;;;8.14;48.89;102865.41;5007185;28;20061;-76
2022/01/26 11:27:43;;;;;;;62.42;23.08;;;;;;;8.15;48.64;102869.00;5010733;28;20049;-75
2022/01/26 11:30:25;;;;;;;54.63;21.25;;;;;;;8.19;48.73;102879.69;5009432;28;20058;-76
2022/01/26 11:32:58;;;;;;;63.88;23.15;;;;;;;8.19;48.98;102886.91;5010887;28;20145;-76
2022/01/26 11:35:28;;;;;;;58.20;22.75;;;;;;;8.18;48.78;102885.13;5007623;28;20049;-76
2022/01/26 11:38:28;;;;;;;55.63;20.83;;;;;;;8.20;48.79;102883.28;5010479;28;20069;-77
2022/01/26 11:46:37;;;;;;;53.67;19.75;;;;;;;8.18;48.77;102877.91;4999968;28;20046;-76
2022/01/26 11:49:11;;;;;;;56.50;21.08;;;;;;;8.23;49.01;102869.69;4993563;28;20105;-77
2022/01/26 11:51:39;;;;;;;57.78;21.73;;;;;;;8.21;49.10;102866.13;5010718;28;20275;-78
2022/01/26 11:54:12;;;;;;;49.78;19.63;;;;;;;8.24;49.03;102860.63;5008944;28;20124;-77
2022/01/26 11:56:38;;;;;;;53.85;19.98;;;;;;;8.21;48.95;102858.00;5009414;28;20481;-77
2022/01/26 11:59:16;;;;;;;57.35;21.05;;;;;;;8.27;48.88;102863.25;5007792;28;20077;-76
2022/01/26 12:01:49;;;;;;;50.25;20.70;;;;;;;8.26;49.38;102858.78;4979563;28;20047;-77
2022/01/26 12:04:17;;;;;;;51.75;21.45;;;;;;;8.26;49.09;102850.66;4977959;28;20043;-76
2022/01/26 12:06:50;;;;;;;48.90;18.42;;;;;;;8.29;48.98;102861.41;4982709;28;20112;-76
2022/01/26 12:09:17;;;;;;;;;;;;;;;8.13;49.36;102862.72;4978740;28;20074;-77
2022/01/26 12:11:55;;;;;;;54.13;19.52;;;;;;;8.30;49.14;102857.78;5011407;28;20296;-77
2022/01/26 12:14:22;;;;;;;48.40;19.02;;;;;;;8.29;48.69;102859.59;5013003;28;20098;-77
2022/01/26 12:16:53;;;;;;;48.85;18.38;;;;;;;8.29;49.11;102846.06;5009662;28;20108;-77
2022/01/26 12:19:29;;;;;;;51.55;19.80;;;;;;;8.31;48.76;102852.38;5006709;28;20124;-76
2022/01/26 12:36:22;;;;;;;42.45;16.63;;;;;;;8.22;49.11;102847.16;5010886;28;20453;-77
2022/01/26 12:38:58;;;;;;;42.20;17.42;;;;;;;8.26;49.43;102832.59;5007917;28;20112;-77
2022/01/26 12:44:09;;;;;;;43.35;16.98;;;;;;;8.28;49.85;102827.16;5007541;28;20089;-77
2022/01/26 12:46:37;;;;;;;45.25;18.13;;;;;;;8.27;49.71;102820.84;4982388;28;20050;-76
2022/01/26 12:49:31;;;;;;;41.22;16.70;;;;;;;8.28;49.51;102830.75;4989026;28;20560;-76
2022/01/26 12:51:57;;;;;;;;;;;;;;;8.08;50.06;102833.06;4980184;28;20120;-76
2022/01/26 12:54:26;;;;;;;33.80;13.10;;;;;;;8.26;49.36;102810.06;4989592;28;20438;-76
2022/01/26 12:57:02;;;;;;;35.58;14.38;;;;;;;8.32;49.28;102810.81;5007889;28;20509;-76
2022/01/26 12:59:29;;;;;;;45.13;16.88;;;;;;;8.32;49.20;102813.53;5010697;28;20062;-76
2022/01/26 13:01:56;;;;;;;43.30;18.23;;;;;;;8.34;49.13;102821.63;5008464;28;20045;-75
2022/01/26 13:04:26;;;;;;;41.10;17.10;;;;;;;8.33;49.02;102823.44;5007688;28;20505;-76
2022/01/26 13:06:53;;;;;;;43.20;16.05;;;;;;;8.30;49.28;102828.91;5008070;28;20053;-76
2022/01/26 13:09:27;;;;;;;40.53;17.17;;;;;;;8.31;49.60;102837.94;5006101;28;20126;-76
2022/01/26 13:11:57;;;;;;;43.88;16.88;;;;;;;8.29;49.54;102829.84;5006678;28;20050;-76
2022/01/26 13:14:57;;;;;;;37.67;15.73;;;;;;;8.30;49.54;102815.38;5004528;28;20046;-77
2022/01/26 13:17:36;;;;;;;40.80;16.63;;;;;;;8.27;49.52;102819.97;5005824;28;20056;-77
2022/01/26 13:23:26;;;;;;;42.40;17.83;;;;;;;8.28;49.42;102809.09;4969441;28;20046;-76
2022/01/26 13:28:44;;;;;;;39.42;17.13;;;;;;;8.31;49.43;102795.53;5008714;28;20100;-77
2022/01/26 13:37:05;;;;;;;38.45;16.05;;;;;;;8.29;49.15;102785.66;5011683;28;20337;-76
2022/01/26 13:39:55;;;;;;;37.83;15.48;;;;;;;8.28;49.67;102779.34;4999195;28;20054;-76
2022/01/26 13:43:08;;;;;;;39.20;15.25;;;;;;;8.28;49.54;102786.56;4990320;28;20080;-76
2022/01/26 13:50:25;;;;;;;41.47;15.27;;;;;;;8.29;49.43;102764.00;4987699;28;20050;-76
2022/01/26 14:00:42;;;;;;;40.28;16.83;;;;;;;8.28;49.37;102763.09;4999801;28;20682;-76
2022/01/26 14:03:12;;;;;;;42.25;17.83;;;;;;;8.27;49.48;102765.84;5006735;28;20050;-76